sensor_id;sensor_type;location;lat;lon;timestamp;P1;durP1;ratioP1;P2;durP2;ratioP2
31284;SDS011;56605;51.516;6.742;2023-04-01T00:00:52;10.70;;;6.43;;
31284;SDS011;56605;51.516;6.742;2023-04-01T00:03:18;13.85;;;7.43;;
31284;SDS011;56605;51.516;6.742;2023-04-01T00:05:44;11.30;;;5.25;;
31284;SDS011;56605;51.516;6.742;2023-04-01T00:08:10;11.85;;;6.72;;
31284;SDS011;56605;51.516;6.742;2023-04-01T00:10:36;11.20;;;4.63;;
31284;SDS011;56605;51.516;6.742;2023-04-01T00:13:01;19.10;;;6.65;;
31284;SDS011;56605;51.516;6.742;2023-04-01T00:15:27;12.20;;;4.95;;
31284;SDS011;56605;51.516;6.742;2023-04-01T00:17:52;13.98;;;5.75;;
31284;SDS011;56605;51.516;6.742;2023-04-01T00:20:19;11.02;;;5.60;;
31284;SDS011;56605;51.516;6.742;2023-04-01T00:22:44;15.20;;;4.47;;
31284;SDS011;56605;51.516;6.742;2023-04-01T00:25:10;11.10;;;4.93;;
31284;SDS011;56605;51.516;6.742;2023-04-01T00:27:35;11.70;;;4.05;;
31284;SDS011;56605;51.516;6.742;2023-04-01T00:30:00;16.02;;;4.93;;
31284;SDS011;56605;51.516;6.742;2023-04-01T00:32:26;9.98;;;4.35;;
31284;SDS011;56605;51.516;6.742;2023-04-01T00:34:51;12.02;;;4.30;;
31284;SDS011;56605;51.516;6.742;2023-04-01T00:37:18;16.83;;;4.68;;
31284;SDS011;56605;51.516;6.742;2023-04-01T00:39:44;16.35;;;8.05;;
31284;SDS011;56605;51.516;6.742;2023-04-01T00:42:10;14.85;;;5.35;;
31284;SDS011;56605;51.516;6.742;2023-04-01T00:44:37;9.35;;;4.55;;
31284;SDS011;56605;51.516;6.742;2023-04-01T00:47:03;12.38;;;6.68;;
31284;SDS011;56605;51.516;6.742;2023-04-01T00:49:42;14.45;;;7.78;;
31284;SDS011;56605;51.516;6.742;2023-04-01T00:52:11;11.77;;;4.95;;
31284;SDS011;56605;51.516;6.742;2023-04-01T00:54:41;9.90;;;5.55;;
31284;SDS011;56605;51.516;6.742;2023-04-01T00:57:13;16.20;;;7.32;;
31284;SDS011;56605;51.516;6.742;2023-04-01T00:59:43;14.48;;;7.70;;
31284;SDS011;56605;51.516;6.742;2023-04-01T01:02:14;9.73;;;4.70;;
31284;SDS011;56605;51.516;6.742;2023-04-01T01:04:40;10.95;;;5.53;;
31284;SDS011;56605;51.516;6.742;2023-04-01T01:12:30;18.67;;;8.25;;
31284;SDS011;56605;51.516;6.742;2023-04-01T01:15:20;12.30;;;5.90;;
31284;SDS011;56605;51.516;6.742;2023-04-01T01:34:52;22.52;;;10.18;;
31284;SDS011;56605;51.516;6.742;2023-04-01T01:37:29;18.52;;;7.70;;
31284;SDS011;56605;51.516;6.742;2023-04-01T01:39:57;14.13;;;5.28;;
31284;SDS011;56605;51.516;6.742;2023-04-01T01:42:26;10.45;;;5.28;;
31284;SDS011;56605;51.516;6.742;2023-04-01T01:44:55;7.18;;;3.08;;
31284;SDS011;56605;51.516;6.742;2023-04-01T01:47:24;18.73;;;6.05;;
31284;SDS011;56605;51.516;6.742;2023-04-01T01:49:52;9.90;;;4.60;;
31284;SDS011;56605;51.516;6.742;2023-04-01T01:52:19;9.18;;;3.83;;
31284;SDS011;56605;51.516;6.742;2023-04-01T01:54:51;10.00;;;4.40;;
31284;SDS011;56605;51.516;6.742;2023-04-01T01:57:22;9.80;;;4.65;;
31284;SDS011;56605;51.516;6.742;2023-04-01T01:59:50;8.15;;;2.80;;
31284;SDS011;56605;51.516;6.742;2023-04-01T02:02:20;8.43;;;3.53;;
31284;SDS011;56605;51.516;6.742;2023-04-01T02:04:47;3.22;;;1.73;;
31284;SDS011;56605;51.516;6.742;2023-04-01T02:07:16;2.70;;;1.15;;
31284;SDS011;56605;51.516;6.742;2023-04-01T02:09:47;3.10;;;1.70;;
31284;SDS011;56605;51.516;6.742;2023-04-01T02:12:13;6.35;;;2.65;;
31284;SDS011;56605;51.516;6.742;2023-04-01T02:17:33;8.88;;;4.15;;
31284;SDS011;56605;51.516;6.742;2023-04-01T02:20:03;10.15;;;3.40;;
31284;SDS011;56605;51.516;6.742;2023-04-01T02:22:37;10.63;;;5.78;;
31284;SDS011;56605;51.516;6.742;2023-04-01T02:25:13;11.88;;;3.90;;
31284;SDS011;56605;51.516;6.742;2023-04-01T02:27:42;9.07;;;3.15;;
31284;SDS011;56605;51.516;6.742;2023-04-01T02:30:09;7.38;;;2.22;;
31284;SDS011;56605;51.516;6.742;2023-04-01T02:32:36;10.27;;;3.33;;
31284;SDS011;56605;51.516;6.742;2023-04-01T02:35:07;9.13;;;2.70;;
31284;SDS011;56605;51.516;6.742;2023-04-01T02:37:35;2.75;;;1.00;;
31284;SDS011;56605;51.516;6.742;2023-04-01T02:40:04;6.82;;;1.58;;
31284;SDS011;56605;51.516;6.742;2023-04-01T02:42:32;2.10;;;1.20;;
31284;SDS011;56605;51.516;6.742;2023-04-01T02:44:58;4.15;;;1.65;;
31284;SDS011;56605;51.516;6.742;2023-04-01T02:47:23;8.05;;;1.92;;
31284;SDS011;56605;51.516;6.742;2023-04-01T02:49:49;4.35;;;2.03;;
31284;SDS011;56605;51.516;6.742;2023-04-01T02:52:14;6.53;;;2.28;;
31284;SDS011;56605;51.516;6.742;2023-04-01T02:54:39;6.95;;;3.03;;
31284;SDS011;56605;51.516;6.742;2023-04-01T02:57:05;6.10;;;2.30;;
31284;SDS011;56605;51.516;6.742;2023-04-01T02:59:31;2.42;;;1.17;;
31284;SDS011;56605;51.516;6.742;2023-04-01T03:01:57;5.05;;;1.10;;
31284;SDS011;56605;51.516;6.742;2023-04-01T03:04:22;4.50;;;1.02;;
31284;SDS011;56605;51.516;6.742;2023-04-01T03:06:47;3.60;;;0.80;;
31284;SDS011;56605;51.516;6.742;2023-04-01T03:09:12;3.67;;;0.98;;
31284;SDS011;56605;51.516;6.742;2023-04-01T03:11:39;1.10;;;0.63;;
31284;SDS011;56605;51.516;6.742;2023-04-01T03:14:05;5.35;;;1.25;;
31284;SDS011;56605;51.516;6.742;2023-04-01T03:16:31;3.20;;;1.55;;
31284;SDS011;56605;51.516;6.742;2023-04-01T03:18:57;4.07;;;1.50;;
31284;SDS011;56605;51.516;6.742;2023-04-01T03:21:24;3.15;;;1.40;;
31284;SDS011;56605;51.516;6.742;2023-04-01T03:23:50;4.22;;;1.65;;
31284;SDS011;56605;51.516;6.742;2023-04-01T03:26:16;2.30;;;1.10;;
31284;SDS011;56605;51.516;6.742;2023-04-01T03:28:42;2.30;;;1.52;;
31284;SDS011;56605;51.516;6.742;2023-04-01T03:31:08;3.33;;;1.50;;
31284;SDS011;56605;51.516;6.742;2023-04-01T03:33:33;2.78;;;2.00;;
31284;SDS011;56605;51.516;6.742;2023-04-01T03:35:58;2.40;;;1.83;;
31284;SDS011;56605;51.516;6.742;2023-04-01T03:38:24;4.15;;;2.15;;
31284;SDS011;56605;51.516;6.742;2023-04-01T03:40:49;2.33;;;1.42;;
31284;SDS011;56605;51.516;6.742;2023-04-01T03:43:15;3.55;;;1.75;;
31284;SDS011;56605;51.516;6.742;2023-04-01T03:45:48;3.63;;;1.63;;
31284;SDS011;56605;51.516;6.742;2023-04-01T03:48:14;3.20;;;1.52;;
31284;SDS011;56605;51.516;6.742;2023-04-01T03:50:40;2.28;;;1.42;;
31284;SDS011;56605;51.516;6.742;2023-04-01T03:53:06;4.38;;;1.90;;
31284;SDS011;56605;51.516;6.742;2023-04-01T03:55:31;3.90;;;1.63;;
31284;SDS011;56605;51.516;6.742;2023-04-01T03:57:57;7.15;;;1.63;;
31284;SDS011;56605;51.516;6.742;2023-04-01T04:00:22;1.75;;;1.13;;
31284;SDS011;56605;51.516;6.742;2023-04-01T04:02:47;3.35;;;1.65;;
31284;SDS011;56605;51.516;6.742;2023-04-01T04:05:13;5.55;;;1.70;;
31284;SDS011;56605;51.516;6.742;2023-04-01T04:07:38;3.45;;;1.77;;
31284;SDS011;56605;51.516;6.742;2023-04-01T04:10:04;2.92;;;1.23;;
31284;SDS011;56605;51.516;6.742;2023-04-01T04:12:30;5.20;;;1.58;;
31284;SDS011;56605;51.516;6.742;2023-04-01T04:14:56;3.85;;;1.67;;
31284;SDS011;56605;51.516;6.742;2023-04-01T04:17:22;3.03;;;1.70;;
31284;SDS011;56605;51.516;6.742;2023-04-01T04:19:47;2.60;;;1.80;;
31284;SDS011;56605;51.516;6.742;2023-04-01T04:22:12;5.40;;;1.45;;
31284;SDS011;56605;51.516;6.742;2023-04-01T04:24:38;2.67;;;1.77;;
31284;SDS011;56605;51.516;6.742;2023-04-01T04:27:03;3.80;;;2.20;;
31284;SDS011;56605;51.516;6.742;2023-04-01T04:29:28;3.85;;;1.80;;
31284;SDS011;56605;51.516;6.742;2023-04-01T04:31:54;4.15;;;2.08;;
31284;SDS011;56605;51.516;6.742;2023-04-01T04:34:20;4.45;;;2.25;;
31284;SDS011;56605;51.516;6.742;2023-04-01T04:36:47;3.22;;;1.92;;
31284;SDS011;56605;51.516;6.742;2023-04-01T04:39:13;4.35;;;1.92;;
31284;SDS011;56605;51.516;6.742;2023-04-01T04:41:38;5.88;;;2.25;;
31284;SDS011;56605;51.516;6.742;2023-04-01T04:44:03;3.00;;;2.17;;
31284;SDS011;56605;51.516;6.742;2023-04-01T04:46:29;3.35;;;2.35;;
31284;SDS011;56605;51.516;6.742;2023-04-01T04:48:55;3.70;;;2.30;;
31284;SDS011;56605;51.516;6.742;2023-04-01T04:51:21;4.70;;;2.03;;
31284;SDS011;56605;51.516;6.742;2023-04-01T04:53:47;3.33;;;1.45;;
31284;SDS011;56605;51.516;6.742;2023-04-01T04:56:17;4.03;;;2.40;;
31284;SDS011;56605;51.516;6.742;2023-04-01T04:58:46;4.05;;;2.30;;
31284;SDS011;56605;51.516;6.742;2023-04-01T05:01:13;5.72;;;2.63;;
31284;SDS011;56605;51.516;6.742;2023-04-01T05:03:40;6.15;;;2.50;;
31284;SDS011;56605;51.516;6.742;2023-04-01T05:06:07;4.22;;;2.03;;
31284;SDS011;56605;51.516;6.742;2023-04-01T05:08:33;5.13;;;2.35;;
31284;SDS011;56605;51.516;6.742;2023-04-01T05:10:59;6.80;;;3.42;;
31284;SDS011;56605;51.516;6.742;2023-04-01T05:13:25;5.25;;;2.33;;
31284;SDS011;56605;51.516;6.742;2023-04-01T05:15:50;3.15;;;2.55;;
31284;SDS011;56605;51.516;6.742;2023-04-01T05:18:15;4.00;;;2.17;;
31284;SDS011;56605;51.516;6.742;2023-04-01T05:20:48;3.03;;;2.40;;
31284;SDS011;56605;51.516;6.742;2023-04-01T05:23:14;4.07;;;2.28;;
31284;SDS011;56605;51.516;6.742;2023-04-01T05:25:40;3.10;;;2.20;;
31284;SDS011;56605;51.516;6.742;2023-04-01T05:28:05;5.80;;;2.55;;
31284;SDS011;56605;51.516;6.742;2023-04-01T05:30:30;5.43;;;2.80;;
31284;SDS011;56605;51.516;6.742;2023-04-01T05:32:56;3.22;;;2.50;;
31284;SDS011;56605;51.516;6.742;2023-04-01T05:35:21;6.25;;;3.00;;
31284;SDS011;56605;51.516;6.742;2023-04-01T05:37:46;3.70;;;2.92;;
31284;SDS011;56605;51.516;6.742;2023-04-01T05:40:11;4.63;;;2.80;;
31284;SDS011;56605;51.516;6.742;2023-04-01T05:42:37;8.85;;;2.80;;
31284;SDS011;56605;51.516;6.742;2023-04-01T05:45:02;4.60;;;2.83;;
31284;SDS011;56605;51.516;6.742;2023-04-01T05:47:28;4.10;;;2.88;;
31284;SDS011;56605;51.516;6.742;2023-04-01T05:49:53;4.53;;;2.85;;
31284;SDS011;56605;51.516;6.742;2023-04-01T05:52:20;5.13;;;3.40;;
31284;SDS011;56605;51.516;6.742;2023-04-01T05:54:45;4.50;;;2.92;;
31284;SDS011;56605;51.516;6.742;2023-04-01T05:57:10;4.25;;;3.03;;
31284;SDS011;56605;51.516;6.742;2023-04-01T05:59:36;6.80;;;3.78;;
31284;SDS011;56605;51.516;6.742;2023-04-01T06:02:01;8.02;;;4.32;;
31284;SDS011;56605;51.516;6.742;2023-04-01T06:04:28;5.95;;;3.90;;
31284;SDS011;56605;51.516;6.742;2023-04-01T06:07:00;6.93;;;3.75;;
31284;SDS011;56605;51.516;6.742;2023-04-01T06:09:26;8.13;;;4.93;;
31284;SDS011;56605;51.516;6.742;2023-04-01T06:31:46;6.07;;;3.25;;
31284;SDS011;56605;51.516;6.742;2023-04-01T06:43:18;8.30;;;5.07;;
31284;SDS011;56605;51.516;6.742;2023-04-01T06:54:17;10.43;;;5.82;;
31284;SDS011;56605;51.516;6.742;2023-04-01T06:56:53;8.13;;;5.18;;
31284;SDS011;56605;51.516;6.742;2023-04-01T06:59:25;8.48;;;5.10;;
31284;SDS011;56605;51.516;6.742;2023-04-01T07:01:54;12.35;;;6.93;;
31284;SDS011;56605;51.516;6.742;2023-04-01T07:04:30;8.60;;;5.90;;
31284;SDS011;56605;51.516;6.742;2023-04-01T07:06:59;7.30;;;4.25;;
31284;SDS011;56605;51.516;6.742;2023-04-01T07:09:33;7.38;;;4.93;;
31284;SDS011;56605;51.516;6.742;2023-04-01T07:12:13;7.63;;;5.50;;
31284;SDS011;56605;51.516;6.742;2023-04-01T07:14:44;7.97;;;5.28;;
31284;SDS011;56605;51.516;6.742;2023-04-01T07:17:23;7.90;;;4.40;;
31284;SDS011;56605;51.516;6.742;2023-04-01T07:19:56;7.15;;;5.25;;
31284;SDS011;56605;51.516;6.742;2023-04-01T07:22:28;8.98;;;5.78;;
31284;SDS011;56605;51.516;6.742;2023-04-01T07:27:50;8.20;;;5.25;;
31284;SDS011;56605;51.516;6.742;2023-04-01T07:30:20;8.40;;;5.60;;
31284;SDS011;56605;51.516;6.742;2023-04-01T07:35:46;6.93;;;4.78;;
31284;SDS011;56605;51.516;6.742;2023-04-01T07:52:05;9.27;;;5.32;;
31284;SDS011;56605;51.516;6.742;2023-04-01T07:54:40;8.90;;;5.47;;
31284;SDS011;56605;51.516;6.742;2023-04-01T07:57:19;9.18;;;4.28;;
31284;SDS011;56605;51.516;6.742;2023-04-01T08:00:13;7.45;;;5.15;;
31284;SDS011;56605;51.516;6.742;2023-04-01T08:11:08;14.60;;;5.65;;
31284;SDS011;56605;51.516;6.742;2023-04-01T08:19:46;7.72;;;4.53;;
31284;SDS011;56605;51.516;6.742;2023-04-01T08:22:27;10.80;;;5.22;;
31284;SDS011;56605;51.516;6.742;2023-04-01T08:24:58;8.40;;;4.60;;
31284;SDS011;56605;51.516;6.742;2023-04-01T08:27:37;11.75;;;3.78;;
31284;SDS011;56605;51.516;6.742;2023-04-01T08:30:16;8.88;;;4.93;;
31284;SDS011;56605;51.516;6.742;2023-04-01T08:32:47;6.70;;;4.22;;
31284;SDS011;56605;51.516;6.742;2023-04-01T08:38:04;8.77;;;5.28;;
31284;SDS011;56605;51.516;6.742;2023-04-01T08:40:46;8.70;;;4.45;;
31284;SDS011;56605;51.516;6.742;2023-04-01T08:43:25;10.20;;;5.80;;
31284;SDS011;56605;51.516;6.742;2023-04-01T08:46:02;8.25;;;4.90;;
31284;SDS011;56605;51.516;6.742;2023-04-01T08:51:34;8.23;;;4.30;;
31284;SDS011;56605;51.516;6.742;2023-04-01T09:00:02;12.02;;;5.47;;
31284;SDS011;56605;51.516;6.742;2023-04-01T09:22:09;12.75;;;6.93;;
31284;SDS011;56605;51.516;6.742;2023-04-01T09:27:36;11.85;;;6.28;;
31284;SDS011;56605;51.516;6.742;2023-04-01T09:36:01;12.15;;;6.82;;
31284;SDS011;56605;51.516;6.742;2023-04-01T09:38:30;15.00;;;7.50;;
31284;SDS011;56605;51.516;6.742;2023-04-01T09:43:56;12.05;;;6.75;;
31284;SDS011;56605;51.516;6.742;2023-04-01T09:46:36;12.68;;;6.40;;
31284;SDS011;56605;51.516;6.742;2023-04-01T09:52:18;9.75;;;5.93;;
31284;SDS011;56605;51.516;6.742;2023-04-01T09:58:29;11.80;;;5.55;;
31284;SDS011;56605;51.516;6.742;2023-04-01T10:01:17;12.32;;;6.25;;
31284;SDS011;56605;51.516;6.742;2023-04-01T10:09:52;7.53;;;4.97;;
31284;SDS011;56605;51.516;6.742;2023-04-01T10:12:40;12.45;;;6.03;;
31284;SDS011;56605;51.516;6.742;2023-04-01T10:15:42;7.93;;;4.75;;
31284;SDS011;56605;51.516;6.742;2023-04-01T10:18:24;9.20;;;5.50;;
31284;SDS011;56605;51.516;6.742;2023-04-01T10:26:39;11.07;;;6.05;;
31284;SDS011;56605;51.516;6.742;2023-04-01T10:32:04;10.85;;;5.90;;
31284;SDS011;56605;51.516;6.742;2023-04-01T10:35:14;12.75;;;6.97;;
31284;SDS011;56605;51.516;6.742;2023-04-01T10:43:30;12.02;;;7.55;;
31284;SDS011;56605;51.516;6.742;2023-04-01T10:54:52;16.73;;;8.30;;
31284;SDS011;56605;51.516;6.742;2023-04-01T11:00:29;14.38;;;8.65;;
31284;SDS011;56605;51.516;6.742;2023-04-01T11:19:59;15.43;;;8.10;;
31284;SDS011;56605;51.516;6.742;2023-04-01T11:25:36;14.98;;;7.65;;
31284;SDS011;56605;51.516;6.742;2023-04-01T11:30:59;13.45;;;8.43;;
31284;SDS011;56605;51.516;6.742;2023-04-01T11:33:47;12.52;;;7.78;;
31284;SDS011;56605;51.516;6.742;2023-04-01T11:39:24;12.20;;;7.75;;
31284;SDS011;56605;51.516;6.742;2023-04-01T11:45:20;12.32;;;7.38;;
31284;SDS011;56605;51.516;6.742;2023-04-01T12:02:18;13.40;;;8.70;;
31284;SDS011;56605;51.516;6.742;2023-04-01T12:05:20;13.85;;;8.90;;
31284;SDS011;56605;51.516;6.742;2023-04-01T12:13:53;14.65;;;8.35;;
31284;SDS011;56605;51.516;6.742;2023-04-01T12:28:23;10.93;;;6.75;;
31284;SDS011;56605;51.516;6.742;2023-04-01T12:44:37;6.63;;;4.65;;
31284;SDS011;56605;51.516;6.742;2023-04-01T12:58:02;8.52;;;6.03;;
31284;SDS011;56605;51.516;6.742;2023-04-01T13:00:54;11.98;;;7.40;;
31284;SDS011;56605;51.516;6.742;2023-04-01T13:15:10;12.00;;;7.72;;
31284;SDS011;56605;51.516;6.742;2023-04-01T13:25:59;10.75;;;6.93;;
31284;SDS011;56605;51.516;6.742;2023-04-01T13:28:50;10.65;;;7.28;;
31284;SDS011;56605;51.516;6.742;2023-04-01T13:47:43;15.20;;;7.72;;
31284;SDS011;56605;51.516;6.742;2023-04-01T14:04:11;14.40;;;9.18;;
31284;SDS011;56605;51.516;6.742;2023-04-01T14:12:42;15.77;;;8.98;;
31284;SDS011;56605;51.516;6.742;2023-04-01T14:32:15;12.85;;;8.73;;
31284;SDS011;56605;51.516;6.742;2023-04-01T14:35:19;15.63;;;9.50;;
31284;SDS011;56605;51.516;6.742;2023-04-01T14:41:13;12.27;;;8.05;;
31284;SDS011;56605;51.516;6.742;2023-04-01T14:49:39;10.73;;;5.97;;
31284;SDS011;56605;51.516;6.742;2023-04-01T14:54:42;18.15;;;8.88;;
31284;SDS011;56605;51.516;6.742;2023-04-01T14:57:15;13.55;;;8.68;;
31284;SDS011;56605;51.516;6.742;2023-04-01T14:59:53;12.70;;;7.80;;
31284;SDS011;56605;51.516;6.742;2023-04-01T15:02:32;12.50;;;8.32;;
31284;SDS011;56605;51.516;6.742;2023-04-01T15:16:48;14.68;;;8.68;;
31284;SDS011;56605;51.516;6.742;2023-04-01T15:27:17;11.57;;;7.40;;
31284;SDS011;56605;51.516;6.742;2023-04-01T15:29:58;12.38;;;8.05;;
31284;SDS011;56605;51.516;6.742;2023-04-01T15:35:43;15.13;;;8.63;;
31284;SDS011;56605;51.516;6.742;2023-04-01T15:38:20;12.48;;;8.57;;
31284;SDS011;56605;51.516;6.742;2023-04-01T15:43:45;16.27;;;9.13;;
31284;SDS011;56605;51.516;6.742;2023-04-01T15:54:23;12.40;;;7.60;;
31284;SDS011;56605;51.516;6.742;2023-04-01T15:56:55;11.00;;;7.13;;
31284;SDS011;56605;51.516;6.742;2023-04-01T16:02:12;9.93;;;6.15;;
31284;SDS011;56605;51.516;6.742;2023-04-01T16:04:47;10.68;;;6.82;;
31284;SDS011;56605;51.516;6.742;2023-04-01T16:16:38;9.07;;;6.20;;
31284;SDS011;56605;51.516;6.742;2023-04-01T16:23:59;10.13;;;6.00;;
31284;SDS011;56605;51.516;6.742;2023-04-01T16:26:37;10.88;;;6.13;;
31284;SDS011;56605;51.516;6.742;2023-04-01T16:29:12;10.95;;;7.20;;
31284;SDS011;56605;51.516;6.742;2023-04-01T16:34:36;8.90;;;5.88;;
31284;SDS011;56605;51.516;6.742;2023-04-01T16:47:15;7.53;;;4.88;;
31284;SDS011;56605;51.516;6.742;2023-04-01T16:52:57;8.85;;;5.25;;
31284;SDS011;56605;51.516;6.742;2023-04-01T16:58:21;8.73;;;6.25;;
31284;SDS011;56605;51.516;6.742;2023-04-01T17:00:52;8.65;;;5.60;;
31284;SDS011;56605;51.516;6.742;2023-04-01T17:03:32;7.85;;;5.68;;
31284;SDS011;56605;51.516;6.742;2023-04-01T17:06:25;8.75;;;6.47;;
31284;SDS011;56605;51.516;6.742;2023-04-01T17:17:17;8.98;;;5.95;;
31284;SDS011;56605;51.516;6.742;2023-04-01T17:33:31;10.48;;;6.50;;
31284;SDS011;56605;51.516;6.742;2023-04-01T17:36:40;11.05;;;6.10;;
31284;SDS011;56605;51.516;6.742;2023-04-01T17:39:35;10.25;;;6.10;;
31284;SDS011;56605;51.516;6.742;2023-04-01T17:47:58;9.63;;;6.20;;
31284;SDS011;56605;51.516;6.742;2023-04-01T17:50:36;10.90;;;6.72;;
31284;SDS011;56605;51.516;6.742;2023-04-01T17:55:53;14.80;;;7.93;;
31284;SDS011;56605;51.516;6.742;2023-04-01T17:58:37;14.32;;;7.95;;
31284;SDS011;56605;51.516;6.742;2023-04-01T18:28:56;16.23;;;10.32;;
31284;SDS011;56605;51.516;6.742;2023-04-01T18:31:37;9.75;;;6.43;;
31284;SDS011;56605;51.516;6.742;2023-04-01T18:34:10;9.88;;;6.63;;
31284;SDS011;56605;51.516;6.742;2023-04-01T18:36:46;13.38;;;8.35;;
31284;SDS011;56605;51.516;6.742;2023-04-01T18:39:23;12.30;;;8.95;;
31284;SDS011;56605;51.516;6.742;2023-04-01T18:42:03;14.95;;;10.07;;
31284;SDS011;56605;51.516;6.742;2023-04-01T18:47:23;19.20;;;11.15;;
31284;SDS011;56605;51.516;6.742;2023-04-01T18:50:36;14.82;;;9.20;;
31284;SDS011;56605;51.516;6.742;2023-04-01T18:56:02;17.85;;;10.00;;
31284;SDS011;56605;51.516;6.742;2023-04-01T18:58:30;14.63;;;9.38;;
31284;SDS011;56605;51.516;6.742;2023-04-01T19:03:28;8.85;;;6.75;;
31284;SDS011;56605;51.516;6.742;2023-04-01T19:06:08;9.65;;;6.40;;
31284;SDS011;56605;51.516;6.742;2023-04-01T19:08:40;8.35;;;5.05;;
31284;SDS011;56605;51.516;6.742;2023-04-01T19:19:59;7.57;;;4.50;;
31284;SDS011;56605;51.516;6.742;2023-04-01T19:25:31;5.22;;;4.20;;
31284;SDS011;56605;51.516;6.742;2023-04-01T19:28:13;5.57;;;4.38;;
31284;SDS011;56605;51.516;6.742;2023-04-01T19:30:57;5.25;;;4.32;;
31284;SDS011;56605;51.516;6.742;2023-04-01T19:41:21;3.75;;;3.35;;
31284;SDS011;56605;51.516;6.742;2023-04-01T19:43:54;5.40;;;3.97;;
31284;SDS011;56605;51.516;6.742;2023-04-01T19:49:21;4.65;;;2.78;;
31284;SDS011;56605;51.516;6.742;2023-04-01T19:52:09;3.85;;;3.33;;
31284;SDS011;56605;51.516;6.742;2023-04-01T19:57:54;4.00;;;3.00;;
31284;SDS011;56605;51.516;6.742;2023-04-01T20:00:44;3.50;;;3.20;;
31284;SDS011;56605;51.516;6.742;2023-04-01T20:09:22;4.78;;;4.00;;
31284;SDS011;56605;51.516;6.742;2023-04-01T20:12:18;5.25;;;4.20;;
31284;SDS011;56605;51.516;6.742;2023-04-01T20:17:28;7.30;;;4.10;;
31284;SDS011;56605;51.516;6.742;2023-04-01T20:33:41;7.15;;;4.57;;
31284;SDS011;56605;51.516;6.742;2023-04-01T20:44:20;4.93;;;4.43;;
31284;SDS011;56605;51.516;6.742;2023-04-01T20:58:29;4.05;;;3.33;;
31284;SDS011;56605;51.516;6.742;2023-04-01T21:06:56;5.05;;;4.25;;
31284;SDS011;56605;51.516;6.742;2023-04-01T21:15:11;6.28;;;4.30;;
31284;SDS011;56605;51.516;6.742;2023-04-01T21:17:44;4.60;;;4.10;;
31284;SDS011;56605;51.516;6.742;2023-04-01T21:23:53;4.95;;;3.70;;
31284;SDS011;56605;51.516;6.742;2023-04-01T21:26:25;5.95;;;3.83;;
31284;SDS011;56605;51.516;6.742;2023-04-01T21:34:43;9.98;;;4.47;;
31284;SDS011;56605;51.516;6.742;2023-04-01T21:37:22;4.70;;;4.25;;
31284;SDS011;56605;51.516;6.742;2023-04-01T21:43:28;4.97;;;3.85;;
31284;SDS011;56605;51.516;6.742;2023-04-01T21:46:21;5.55;;;4.32;;
31284;SDS011;56605;51.516;6.742;2023-04-01T21:49:17;6.85;;;4.93;;
31284;SDS011;56605;51.516;6.742;2023-04-01T21:57:49;6.80;;;4.40;;
31284;SDS011;56605;51.516;6.742;2023-04-01T22:05:55;4.78;;;3.85;;
31284;SDS011;56605;51.516;6.742;2023-04-01T22:08:35;6.82;;;4.95;;
31284;SDS011;56605;51.516;6.742;2023-04-01T22:11:10;5.00;;;4.47;;
31284;SDS011;56605;51.516;6.742;2023-04-01T22:16:58;4.53;;;4.00;;
31284;SDS011;56605;51.516;6.742;2023-04-01T22:24:22;6.50;;;3.75;;
31284;SDS011;56605;51.516;6.742;2023-04-01T22:32:26;5.22;;;4.40;;
31284;SDS011;56605;51.516;6.742;2023-04-01T22:34:57;6.00;;;4.07;;
31284;SDS011;56605;51.516;6.742;2023-04-01T22:43:10;5.68;;;4.47;;
31284;SDS011;56605;51.516;6.742;2023-04-01T22:51:15;5.85;;;5.20;;
31284;SDS011;56605;51.516;6.742;2023-04-01T22:56:34;6.22;;;4.80;;
31284;SDS011;56605;51.516;6.742;2023-04-01T22:59:16;6.78;;;6.03;;
31284;SDS011;56605;51.516;6.742;2023-04-01T23:02:33;7.07;;;5.70;;
31284;SDS011;56605;51.516;6.742;2023-04-01T23:04:48;6.43;;;5.07;;
31284;SDS011;56605;51.516;6.742;2023-04-01T23:07:24;10.52;;;5.35;;
31284;SDS011;56605;51.516;6.742;2023-04-01T23:09:53;6.78;;;6.18;;
31284;SDS011;56605;51.516;6.742;2023-04-01T23:12:22;7.20;;;5.63;;
31284;SDS011;56605;51.516;6.742;2023-04-01T23:14:50;9.57;;;4.95;;
31284;SDS011;56605;51.516;6.742;2023-04-01T23:23:12;5.28;;;4.50;;
31284;SDS011;56605;51.516;6.742;2023-04-01T23:28:37;4.95;;;3.60;;
31284;SDS011;56605;51.516;6.742;2023-04-01T23:31:24;5.18;;;4.00;;
31284;SDS011;56605;51.516;6.742;2023-04-01T23:34:18;5.60;;;4.07;;
31284;SDS011;56605;51.516;6.742;2023-04-01T23:36:48;5.07;;;3.90;;
31284;SDS011;56605;51.516;6.742;2023-04-01T23:39:36;5.82;;;4.10;;
31284;SDS011;56605;51.516;6.742;2023-04-01T23:42:05;5.50;;;4.38;;
31284;SDS011;56605;51.516;6.742;2023-04-01T23:44:37;6.82;;;4.22;;
31284;SDS011;56605;51.516;6.742;2023-04-01T23:47:03;5.00;;;4.03;;
31284;SDS011;56605;51.516;6.742;2023-04-01T23:49:38;6.25;;;4.75;;
31284;SDS011;56605;51.516;6.742;2023-04-01T23:52:10;6.90;;;5.03;;
31284;SDS011;56605;51.516;6.742;2023-04-01T23:54:43;7.10;;;5.63;;
31284;SDS011;56605;51.516;6.742;2023-04-01T23:57:33;5.40;;;4.45;;
